sensor_id;sensor_type;location;lat;lon;timestamp;P1;durP1;ratioP1;P2;durP2;ratioP2
85381;SDS011;75790;40.308;44.272;2024-01-16T08:47:12;88.20;;;37.67;;
85381;SDS011;75790;40.308;44.272;2024-01-16T08:49:37;53.90;;;19.42;;
85381;SDS011;75790;40.308;44.272;2024-01-16T08:52:03;48.10;;;18.67;;
85381;SDS011;75790;40.308;44.272;2024-01-16T08:54:30;68.07;;;16.35;;
85381;SDS011;75790;40.308;44.272;2024-01-16T08:56:56;81.68;;;15.68;;
85381;SDS011;75790;40.308;44.272;2024-01-16T08:59:23;52.20;;;12.57;;
85381;SDS011;75790;40.308;44.272;2024-01-16T09:01:49;35.55;;;10.90;;
85381;SDS011;75790;40.308;44.272;2024-01-16T09:04:16;56.25;;;13.40;;
85381;SDS011;75790;40.308;44.272;2024-01-16T09:06:42;29.25;;;11.98;;
85381;SDS011;75790;40.308;44.272;2024-01-16T09:09:08;37.22;;;12.50;;
85381;SDS011;75790;40.308;44.272;2024-01-16T09:11:34;37.95;;;13.13;;
85381;SDS011;75790;40.308;44.272;2024-01-16T09:14:00;37.97;;;13.00;;
85381;SDS011;75790;40.308;44.272;2024-01-16T09:16:25;41.42;;;15.10;;
85381;SDS011;75790;40.308;44.272;2024-01-16T09:18:51;49.47;;;18.10;;
85381;SDS011;75790;40.308;44.272;2024-01-16T09:21:17;55.78;;;16.75;;
85381;SDS011;75790;40.308;44.272;2024-01-16T09:23:43;82.47;;;18.63;;
85381;SDS011;75790;40.308;44.272;2024-01-16T09:26:09;70.07;;;17.73;;
85381;SDS011;75790;40.308;44.272;2024-01-16T09:28:35;79.85;;;22.38;;
85381;SDS011;75790;40.308;44.272;2024-01-16T09:31:01;61.95;;;23.05;;
85381;SDS011;75790;40.308;44.272;2024-01-16T09:33:27;62.38;;;24.02;;
85381;SDS011;75790;40.308;44.272;2024-01-16T09:35:53;60.13;;;22.90;;
85381;SDS011;75790;40.308;44.272;2024-01-16T09:38:19;67.95;;;22.40;;
85381;SDS011;75790;40.308;44.272;2024-01-16T09:40:46;68.95;;;22.77;;
85381;SDS011;75790;40.308;44.272;2024-01-16T09:43:12;58.50;;;23.48;;
85381;SDS011;75790;40.308;44.272;2024-01-16T09:45:39;54.00;;;22.38;;
85381;SDS011;75790;40.308;44.272;2024-01-16T09:48:05;48.53;;;21.17;;
85381;SDS011;75790;40.308;44.272;2024-01-16T09:50:33;54.30;;;22.88;;
85381;SDS011;75790;40.308;44.272;2024-01-16T09:52:59;67.30;;;22.17;;
85381;SDS011;75790;40.308;44.272;2024-01-16T09:55:25;59.67;;;21.83;;
85381;SDS011;75790;40.308;44.272;2024-01-16T09:57:52;67.85;;;24.50;;
85381;SDS011;75790;40.308;44.272;2024-01-16T10:00:20;54.55;;;22.42;;
85381;SDS011;75790;40.308;44.272;2024-01-16T10:02:47;56.95;;;21.55;;
85381;SDS011;75790;40.308;44.272;2024-01-16T10:05:13;53.08;;;21.23;;
85381;SDS011;75790;40.308;44.272;2024-01-16T10:07:39;51.63;;;21.75;;
85381;SDS011;75790;40.308;44.272;2024-01-16T10:10:08;51.95;;;21.30;;
85381;SDS011;75790;40.308;44.272;2024-01-16T10:12:38;53.60;;;21.95;;
85381;SDS011;75790;40.308;44.272;2024-01-16T10:15:08;55.45;;;22.40;;
85381;SDS011;75790;40.308;44.272;2024-01-16T10:17:38;53.10;;;20.08;;
85381;SDS011;75790;40.308;44.272;2024-01-16T10:20:06;46.80;;;21.10;;
85381;SDS011;75790;40.308;44.272;2024-01-16T10:22:33;54.90;;;22.48;;
85381;SDS011;75790;40.308;44.272;2024-01-16T10:25:11;55.42;;;22.17;;
85381;SDS011;75790;40.308;44.272;2024-01-16T10:27:41;55.75;;;21.55;;
85381;SDS011;75790;40.308;44.272;2024-01-16T10:30:08;45.95;;;19.05;;
85381;SDS011;75790;40.308;44.272;2024-01-16T10:32:41;55.42;;;20.13;;
85381;SDS011;75790;40.308;44.272;2024-01-16T10:35:11;55.42;;;21.60;;
85381;SDS011;75790;40.308;44.272;2024-01-16T10:40:17;47.22;;;19.08;;
85381;SDS011;75790;40.308;44.272;2024-01-16T10:43:03;49.60;;;20.65;;
85381;SDS011;75790;40.308;44.272;2024-01-16T10:45:30;49.50;;;20.05;;
85381;SDS011;75790;40.308;44.272;2024-01-16T10:48:06;54.80;;;22.08;;
85381;SDS011;75790;40.308;44.272;2024-01-16T10:50:33;51.15;;;22.05;;
85381;SDS011;75790;40.308;44.272;2024-01-16T10:53:00;49.58;;;21.70;;
85381;SDS011;75790;40.308;44.272;2024-01-16T10:55:29;45.97;;;21.35;;
85381;SDS011;75790;40.308;44.272;2024-01-16T10:57:58;51.20;;;21.80;;
85381;SDS011;75790;40.308;44.272;2024-01-16T11:00:25;52.60;;;22.92;;
85381;SDS011;75790;40.308;44.272;2024-01-16T11:03:11;52.17;;;22.75;;
85381;SDS011;75790;40.308;44.272;2024-01-16T11:05:41;52.85;;;21.45;;
85381;SDS011;75790;40.308;44.272;2024-01-16T11:08:08;48.90;;;22.10;;
85381;SDS011;75790;40.308;44.272;2024-01-16T11:10:34;44.25;;;21.15;;
85381;SDS011;75790;40.308;44.272;2024-01-16T11:13:01;48.58;;;20.80;;
85381;SDS011;75790;40.308;44.272;2024-01-16T11:15:30;57.20;;;19.77;;
85381;SDS011;75790;40.308;44.272;2024-01-16T11:18:00;44.38;;;18.40;;
85381;SDS011;75790;40.308;44.272;2024-01-16T11:20:27;45.88;;;18.65;;
85381;SDS011;75790;40.308;44.272;2024-01-16T11:22:54;48.45;;;20.05;;
85381;SDS011;75790;40.308;44.272;2024-01-16T11:25:30;55.85;;;20.17;;
85381;SDS011;75790;40.308;44.272;2024-01-16T11:28:07;62.03;;;19.13;;
85381;SDS011;75790;40.308;44.272;2024-01-16T11:30:34;58.33;;;21.05;;
85381;SDS011;75790;40.308;44.272;2024-01-16T11:33:01;46.97;;;17.70;;
85381;SDS011;75790;40.308;44.272;2024-01-16T11:35:33;60.28;;;23.13;;
85381;SDS011;75790;40.308;44.272;2024-01-16T11:38:20;50.75;;;21.73;;
85381;SDS011;75790;40.308;44.272;2024-01-16T11:40:46;54.00;;;19.98;;
85381;SDS011;75790;40.308;44.272;2024-01-16T11:46:04;54.15;;;23.73;;
85381;SDS011;75790;40.308;44.272;2024-01-16T11:48:33;52.28;;;21.33;;
85381;SDS011;75790;40.308;44.272;2024-01-16T11:51:00;54.38;;;21.60;;
85381;SDS011;75790;40.308;44.272;2024-01-16T11:53:33;51.53;;;20.17;;
85381;SDS011;75790;40.308;44.272;2024-01-16T11:58:44;43.92;;;17.73;;
85381;SDS011;75790;40.308;44.272;2024-01-16T12:01:15;50.85;;;20.40;;
85381;SDS011;75790;40.308;44.272;2024-01-16T12:03:43;45.53;;;19.63;;
85381;SDS011;75790;40.308;44.272;2024-01-16T12:06:09;40.53;;;17.35;;
85381;SDS011;75790;40.308;44.272;2024-01-16T12:08:35;40.28;;;16.77;;
85381;SDS011;75790;40.308;44.272;2024-01-16T12:11:02;50.83;;;19.88;;
85381;SDS011;75790;40.308;44.272;2024-01-16T12:13:29;39.63;;;17.60;;
85381;SDS011;75790;40.308;44.272;2024-01-16T12:16:02;43.15;;;19.08;;
85381;SDS011;75790;40.308;44.272;2024-01-16T12:18:31;50.28;;;20.48;;
85381;SDS011;75790;40.308;44.272;2024-01-16T12:20:57;44.45;;;19.35;;
85381;SDS011;75790;40.308;44.272;2024-01-16T12:23:23;48.60;;;18.60;;
85381;SDS011;75790;40.308;44.272;2024-01-16T12:25:52;48.83;;;19.80;;
85381;SDS011;75790;40.308;44.272;2024-01-16T12:30:50;53.22;;;19.55;;
85381;SDS011;75790;40.308;44.272;2024-01-16T12:33:21;55.17;;;22.25;;
85381;SDS011;75790;40.308;44.272;2024-01-16T12:35:48;58.72;;;23.70;;
85381;SDS011;75790;40.308;44.272;2024-01-16T12:38:14;66.85;;;24.75;;
85381;SDS011;75790;40.308;44.272;2024-01-16T12:40:48;68.10;;;26.55;;
85381;SDS011;75790;40.308;44.272;2024-01-16T12:45:43;57.03;;;22.63;;
85381;SDS011;75790;40.308;44.272;2024-01-16T12:48:10;58.03;;;22.95;;
85381;SDS011;75790;40.308;44.272;2024-01-16T12:50:36;56.15;;;21.58;;
85381;SDS011;75790;40.308;44.272;2024-01-16T12:53:03;62.70;;;25.15;;
85381;SDS011;75790;40.308;44.272;2024-01-16T12:55:38;82.90;;;33.53;;
85381;SDS011;75790;40.308;44.272;2024-01-16T12:58:18;72.93;;;28.48;;
85381;SDS011;75790;40.308;44.272;2024-01-16T13:00:45;69.85;;;25.90;;
85381;SDS011;75790;40.308;44.272;2024-01-16T13:03:15;60.22;;;25.63;;
85381;SDS011;75790;40.308;44.272;2024-01-16T13:05:45;63.80;;;24.88;;
85381;SDS011;75790;40.308;44.272;2024-01-16T13:08:18;70.40;;;25.13;;
85381;SDS011;75790;40.308;44.272;2024-01-16T13:11:01;51.03;;;19.77;;
85381;SDS011;75790;40.308;44.272;2024-01-16T13:13:28;77.03;;;29.23;;
85381;SDS011;75790;40.308;44.272;2024-01-16T13:15:54;66.95;;;26.15;;
85381;SDS011;75790;40.308;44.272;2024-01-16T13:18:23;62.30;;;24.17;;
85381;SDS011;75790;40.308;44.272;2024-01-16T13:20:53;67.57;;;26.25;;
85381;SDS011;75790;40.308;44.272;2024-01-16T13:23:20;179.68;;;41.70;;
85381;SDS011;75790;40.308;44.272;2024-01-16T13:25:47;89.07;;;30.58;;
85381;SDS011;75790;40.308;44.272;2024-01-16T13:28:17;82.38;;;29.00;;
85381;SDS011;75790;40.308;44.272;2024-01-16T13:30:45;72.18;;;28.08;;
85381;SDS011;75790;40.308;44.272;2024-01-16T13:33:12;72.57;;;25.98;;
85381;SDS011;75790;40.308;44.272;2024-01-16T13:35:41;71.95;;;28.83;;
85381;SDS011;75790;40.308;44.272;2024-01-16T13:38:14;64.63;;;24.33;;
85381;SDS011;75790;40.308;44.272;2024-01-16T13:40:44;78.55;;;27.52;;
85381;SDS011;75790;40.308;44.272;2024-01-16T13:43:10;77.30;;;29.40;;
85381;SDS011;75790;40.308;44.272;2024-01-16T13:45:37;78.28;;;29.88;;
85381;SDS011;75790;40.308;44.272;2024-01-16T13:48:06;78.80;;;26.42;;
85381;SDS011;75790;40.308;44.272;2024-01-16T13:50:33;68.78;;;26.25;;
85381;SDS011;75790;40.308;44.272;2024-01-16T13:52:59;62.47;;;24.10;;
85381;SDS011;75790;40.308;44.272;2024-01-16T13:55:25;67.60;;;26.33;;
85381;SDS011;75790;40.308;44.272;2024-01-16T13:57:51;129.80;;;40.53;;
85381;SDS011;75790;40.308;44.272;2024-01-16T14:00:17;92.28;;;31.23;;
85381;SDS011;75790;40.308;44.272;2024-01-16T14:02:46;66.35;;;24.25;;
85381;SDS011;75790;40.308;44.272;2024-01-16T14:05:13;80.18;;;30.38;;
85381;SDS011;75790;40.308;44.272;2024-01-16T14:07:50;100.63;;;34.03;;
85381;SDS011;75790;40.308;44.272;2024-01-16T14:10:20;84.93;;;31.25;;
85381;SDS011;75790;40.308;44.272;2024-01-16T14:12:47;88.93;;;31.42;;
85381;SDS011;75790;40.308;44.272;2024-01-16T14:15:15;89.35;;;32.50;;
85381;SDS011;75790;40.308;44.272;2024-01-16T14:20:14;75.32;;;29.63;;
85381;SDS011;75790;40.308;44.272;2024-01-16T14:22:41;67.38;;;25.27;;
85381;SDS011;75790;40.308;44.272;2024-01-16T14:25:07;64.32;;;24.08;;
85381;SDS011;75790;40.308;44.272;2024-01-16T14:27:41;70.03;;;28.08;;
85381;SDS011;75790;40.308;44.272;2024-01-16T14:30:12;73.07;;;28.40;;
85381;SDS011;75790;40.308;44.272;2024-01-16T14:32:39;77.05;;;27.85;;
85381;SDS011;75790;40.308;44.272;2024-01-16T14:35:06;75.70;;;29.35;;
85381;SDS011;75790;40.308;44.272;2024-01-16T14:37:34;72.20;;;26.35;;
85381;SDS011;75790;40.308;44.272;2024-01-16T14:40:03;65.80;;;25.27;;
85381;SDS011;75790;40.308;44.272;2024-01-16T14:42:38;68.35;;;27.88;;
85381;SDS011;75790;40.308;44.272;2024-01-16T14:45:05;79.00;;;31.13;;
85381;SDS011;75790;40.308;44.272;2024-01-16T14:47:32;78.15;;;28.65;;
85381;SDS011;75790;40.308;44.272;2024-01-16T14:49:58;72.07;;;29.27;;
85381;SDS011;75790;40.308;44.272;2024-01-16T14:52:24;79.90;;;30.65;;
85381;SDS011;75790;40.308;44.272;2024-01-16T14:54:50;82.53;;;33.55;;
85381;SDS011;75790;40.308;44.272;2024-01-16T14:57:17;71.68;;;27.67;;
85381;SDS011;75790;40.308;44.272;2024-01-16T14:59:43;81.00;;;33.50;;
85381;SDS011;75790;40.308;44.272;2024-01-16T15:02:13;83.15;;;30.33;;
85381;SDS011;75790;40.308;44.272;2024-01-16T15:04:39;120.20;;;40.88;;
85381;SDS011;75790;40.308;44.272;2024-01-16T15:07:05;87.70;;;31.60;;
85381;SDS011;75790;40.308;44.272;2024-01-16T15:09:31;96.35;;;35.92;;
85381;SDS011;75790;40.308;44.272;2024-01-16T15:12:00;84.80;;;32.75;;
85381;SDS011;75790;40.308;44.272;2024-01-16T15:14:28;94.85;;;33.05;;
85381;SDS011;75790;40.308;44.272;2024-01-16T15:16:53;94.50;;;32.92;;
85381;SDS011;75790;40.308;44.272;2024-01-16T15:19:19;89.78;;;32.50;;
85381;SDS011;75790;40.308;44.272;2024-01-16T15:21:45;86.25;;;32.55;;
85381;SDS011;75790;40.308;44.272;2024-01-16T15:24:12;83.13;;;32.35;;
85381;SDS011;75790;40.308;44.272;2024-01-16T15:26:45;84.45;;;31.17;;
85381;SDS011;75790;40.308;44.272;2024-01-16T15:29:10;87.75;;;34.42;;
85381;SDS011;75790;40.308;44.272;2024-01-16T15:31:37;75.10;;;28.63;;
85381;SDS011;75790;40.308;44.272;2024-01-16T15:34:03;92.15;;;34.22;;
85381;SDS011;75790;40.308;44.272;2024-01-16T15:36:29;76.57;;;30.35;;
85381;SDS011;75790;40.308;44.272;2024-01-16T15:38:55;79.80;;;30.67;;
85381;SDS011;75790;40.308;44.272;2024-01-16T15:41:20;80.20;;;29.90;;
85381;SDS011;75790;40.308;44.272;2024-01-16T15:43:46;99.00;;;34.00;;
85381;SDS011;75790;40.308;44.272;2024-01-16T15:46:12;91.00;;;32.78;;
85381;SDS011;75790;40.308;44.272;2024-01-16T15:48:38;89.25;;;32.17;;
85381;SDS011;75790;40.308;44.272;2024-01-16T15:51:04;86.22;;;31.52;;
85381;SDS011;75790;40.308;44.272;2024-01-16T15:53:33;84.03;;;31.58;;
85381;SDS011;75790;40.308;44.272;2024-01-16T15:55:59;67.35;;;26.85;;
85381;SDS011;75790;40.308;44.272;2024-01-16T15:58:25;64.45;;;26.45;;
85381;SDS011;75790;40.308;44.272;2024-01-16T16:00:51;77.68;;;29.95;;
85381;SDS011;75790;40.308;44.272;2024-01-16T16:03:17;76.95;;;29.42;;
85381;SDS011;75790;40.308;44.272;2024-01-16T16:05:43;82.18;;;30.33;;
85381;SDS011;75790;40.308;44.272;2024-01-16T16:08:09;75.47;;;27.30;;
85381;SDS011;75790;40.308;44.272;2024-01-16T16:10:35;71.85;;;29.30;;
85381;SDS011;75790;40.308;44.272;2024-01-16T16:13:01;70.18;;;27.70;;
85381;SDS011;75790;40.308;44.272;2024-01-16T16:15:28;72.70;;;28.42;;
85381;SDS011;75790;40.308;44.272;2024-01-16T16:17:54;48.55;;;19.02;;
85381;SDS011;75790;40.308;44.272;2024-01-16T16:20:20;67.35;;;25.63;;
85381;SDS011;75790;40.308;44.272;2024-01-16T16:22:49;80.85;;;29.48;;
85381;SDS011;75790;40.308;44.272;2024-01-16T16:25:16;74.55;;;28.50;;
85381;SDS011;75790;40.308;44.272;2024-01-16T16:27:43;75.82;;;28.80;;
85381;SDS011;75790;40.308;44.272;2024-01-16T16:30:09;66.88;;;28.27;;
85381;SDS011;75790;40.308;44.272;2024-01-16T16:32:39;68.20;;;25.52;;
85381;SDS011;75790;40.308;44.272;2024-01-16T16:35:05;56.97;;;24.27;;
85381;SDS011;75790;40.308;44.272;2024-01-16T16:37:31;58.45;;;24.20;;
85381;SDS011;75790;40.308;44.272;2024-01-16T16:39:57;72.32;;;27.98;;
85381;SDS011;75790;40.308;44.272;2024-01-16T16:42:23;65.18;;;25.95;;
85381;SDS011;75790;40.308;44.272;2024-01-16T16:44:52;62.47;;;26.20;;
85381;SDS011;75790;40.308;44.272;2024-01-16T16:47:20;60.95;;;23.40;;
85381;SDS011;75790;40.308;44.272;2024-01-16T16:49:46;69.15;;;27.50;;
85381;SDS011;75790;40.308;44.272;2024-01-16T16:52:11;60.95;;;24.83;;
85381;SDS011;75790;40.308;44.272;2024-01-16T16:54:37;98.90;;;30.15;;
85381;SDS011;75790;40.308;44.272;2024-01-16T16:57:03;68.97;;;27.33;;
85381;SDS011;75790;40.308;44.272;2024-01-16T16:59:29;70.78;;;26.67;;
85381;SDS011;75790;40.308;44.272;2024-01-16T17:01:55;73.85;;;26.42;;
85381;SDS011;75790;40.308;44.272;2024-01-16T17:04:21;60.22;;;25.23;;
85381;SDS011;75790;40.308;44.272;2024-01-16T17:06:47;80.32;;;28.70;;
85381;SDS011;75790;40.308;44.272;2024-01-16T17:09:13;54.15;;;22.50;;
85381;SDS011;75790;40.308;44.272;2024-01-16T17:11:44;60.30;;;22.63;;
85381;SDS011;75790;40.308;44.272;2024-01-16T17:14:10;70.75;;;27.02;;
85381;SDS011;75790;40.308;44.272;2024-01-16T17:16:36;66.82;;;28.02;;
85381;SDS011;75790;40.308;44.272;2024-01-16T17:19:02;62.20;;;24.38;;
85381;SDS011;75790;40.308;44.272;2024-01-16T17:21:28;62.67;;;23.13;;
85381;SDS011;75790;40.308;44.272;2024-01-16T17:23:54;46.33;;;20.65;;
85381;SDS011;75790;40.308;44.272;2024-01-16T17:26:20;63.65;;;24.17;;
85381;SDS011;75790;40.308;44.272;2024-01-16T17:28:46;56.17;;;22.20;;
85381;SDS011;75790;40.308;44.272;2024-01-16T17:31:12;59.92;;;24.40;;
85381;SDS011;75790;40.308;44.272;2024-01-16T17:33:38;54.42;;;21.63;;
85381;SDS011;75790;40.308;44.272;2024-01-16T17:36:03;56.83;;;22.60;;
85381;SDS011;75790;40.308;44.272;2024-01-16T17:38:36;51.38;;;20.63;;
85381;SDS011;75790;40.308;44.272;2024-01-16T17:41:02;41.15;;;18.23;;
85381;SDS011;75790;40.308;44.272;2024-01-16T17:43:29;43.95;;;18.67;;
85381;SDS011;75790;40.308;44.272;2024-01-16T17:45:56;46.67;;;18.67;;
85381;SDS011;75790;40.308;44.272;2024-01-16T17:48:23;49.58;;;19.85;;
85381;SDS011;75790;40.308;44.272;2024-01-16T17:50:49;48.58;;;20.63;;
85381;SDS011;75790;40.308;44.272;2024-01-16T17:53:15;46.33;;;19.25;;
85381;SDS011;75790;40.308;44.272;2024-01-16T17:55:41;49.20;;;21.45;;
85381;SDS011;75790;40.308;44.272;2024-01-16T17:58:08;51.38;;;21.70;;
85381;SDS011;75790;40.308;44.272;2024-01-16T18:00:34;45.80;;;18.73;;
85381;SDS011;75790;40.308;44.272;2024-01-16T18:03:00;46.28;;;19.98;;
85381;SDS011;75790;40.308;44.272;2024-01-16T18:07:58;40.58;;;18.35;;
85381;SDS011;75790;40.308;44.272;2024-01-16T18:10:24;56.53;;;22.08;;
85381;SDS011;75790;40.308;44.272;2024-01-16T18:12:51;49.60;;;19.83;;
85381;SDS011;75790;40.308;44.272;2024-01-16T18:15:17;51.15;;;20.08;;
85381;SDS011;75790;40.308;44.272;2024-01-16T18:17:47;84.50;;;33.70;;
85381;SDS011;75790;40.308;44.272;2024-01-16T18:20:15;69.90;;;28.58;;
85381;SDS011;75790;40.308;44.272;2024-01-16T18:22:45;84.35;;;34.60;;
85381;SDS011;75790;40.308;44.272;2024-01-16T18:25:15;85.85;;;34.70;;
85381;SDS011;75790;40.308;44.272;2024-01-16T18:27:41;57.60;;;23.38;;
85381;SDS011;75790;40.308;44.272;2024-01-16T18:30:13;53.92;;;21.70;;
85381;SDS011;75790;40.308;44.272;2024-01-16T18:32:42;59.97;;;24.50;;
85381;SDS011;75790;40.308;44.272;2024-01-16T18:35:09;79.68;;;30.70;;
85381;SDS011;75790;40.308;44.272;2024-01-16T18:37:38;84.38;;;31.35;;
85381;SDS011;75790;40.308;44.272;2024-01-16T18:40:05;88.82;;;35.05;;
85381;SDS011;75790;40.308;44.272;2024-01-16T18:42:42;67.72;;;26.80;;
85381;SDS011;75790;40.308;44.272;2024-01-16T18:45:11;69.30;;;28.73;;
85381;SDS011;75790;40.308;44.272;2024-01-16T18:47:37;92.75;;;33.60;;
85381;SDS011;75790;40.308;44.272;2024-01-16T18:50:04;94.22;;;35.55;;
85381;SDS011;75790;40.308;44.272;2024-01-16T18:52:35;80.90;;;30.67;;
85381;SDS011;75790;40.308;44.272;2024-01-16T18:55:05;91.22;;;33.95;;
85381;SDS011;75790;40.308;44.272;2024-01-16T18:57:42;94.65;;;34.38;;
85381;SDS011;75790;40.308;44.272;2024-01-16T19:00:11;95.22;;;35.10;;
85381;SDS011;75790;40.308;44.272;2024-01-16T19:02:41;106.57;;;35.35;;
85381;SDS011;75790;40.308;44.272;2024-01-16T19:05:11;88.40;;;33.55;;
85381;SDS011;75790;40.308;44.272;2024-01-16T19:07:41;92.40;;;33.60;;
85381;SDS011;75790;40.308;44.272;2024-01-16T19:10:12;87.88;;;31.70;;
85381;SDS011;75790;40.308;44.272;2024-01-16T19:12:41;85.57;;;29.70;;
85381;SDS011;75790;40.308;44.272;2024-01-16T19:15:08;77.82;;;30.67;;
85381;SDS011;75790;40.308;44.272;2024-01-16T19:17:35;82.90;;;32.38;;
85381;SDS011;75790;40.308;44.272;2024-01-16T19:20:01;84.97;;;31.20;;
85381;SDS011;75790;40.308;44.272;2024-01-16T19:22:35;87.43;;;34.03;;
85381;SDS011;75790;40.308;44.272;2024-01-16T19:25:02;85.30;;;32.97;;
85381;SDS011;75790;40.308;44.272;2024-01-16T19:27:29;77.05;;;28.83;;
85381;SDS011;75790;40.308;44.272;2024-01-16T19:29:55;73.97;;;30.25;;
85381;SDS011;75790;40.308;44.272;2024-01-16T19:32:20;70.97;;;28.27;;
85381;SDS011;75790;40.308;44.272;2024-01-16T19:34:46;77.72;;;30.75;;
85381;SDS011;75790;40.308;44.272;2024-01-16T19:37:12;69.28;;;27.67;;
85381;SDS011;75790;40.308;44.272;2024-01-16T19:39:38;72.20;;;30.25;;
85381;SDS011;75790;40.308;44.272;2024-01-16T19:42:07;86.05;;;33.00;;
85381;SDS011;75790;40.308;44.272;2024-01-16T19:44:35;81.07;;;30.70;;
85381;SDS011;75790;40.308;44.272;2024-01-16T19:47:01;76.97;;;29.90;;
85381;SDS011;75790;40.308;44.272;2024-01-16T19:49:27;77.05;;;31.23;;
85381;SDS011;75790;40.308;44.272;2024-01-16T19:51:53;73.53;;;29.92;;
85381;SDS011;75790;40.308;44.272;2024-01-16T19:54:19;84.15;;;31.35;;
85381;SDS011;75790;40.308;44.272;2024-01-16T19:56:44;70.72;;;27.85;;
85381;SDS011;75790;40.308;44.272;2024-01-16T19:59:10;65.47;;;26.42;;
85381;SDS011;75790;40.308;44.272;2024-01-16T20:01:36;45.92;;;19.83;;
85381;SDS011;75790;40.308;44.272;2024-01-16T20:04:02;67.05;;;26.48;;
85381;SDS011;75790;40.308;44.272;2024-01-16T20:06:30;60.28;;;24.60;;
85381;SDS011;75790;40.308;44.272;2024-01-16T20:08:56;63.45;;;24.65;;
85381;SDS011;75790;40.308;44.272;2024-01-16T20:11:30;65.50;;;27.17;;
85381;SDS011;75790;40.308;44.272;2024-01-16T20:13:58;64.97;;;27.33;;
85381;SDS011;75790;40.308;44.272;2024-01-16T20:16:25;58.50;;;23.20;;
85381;SDS011;75790;40.308;44.272;2024-01-16T20:18:51;56.97;;;23.20;;
85381;SDS011;75790;40.308;44.272;2024-01-16T20:21:21;56.08;;;23.15;;
85381;SDS011;75790;40.308;44.272;2024-01-16T20:23:48;46.38;;;19.38;;
85381;SDS011;75790;40.308;44.272;2024-01-16T20:26:17;54.13;;;23.25;;
85381;SDS011;75790;40.308;44.272;2024-01-16T20:28:44;51.53;;;22.33;;
85381;SDS011;75790;40.308;44.272;2024-01-16T20:31:11;46.83;;;20.48;;
85381;SDS011;75790;40.308;44.272;2024-01-16T20:33:41;53.75;;;19.92;;
85381;SDS011;75790;40.308;44.272;2024-01-16T20:36:13;40.50;;;17.48;;
85381;SDS011;75790;40.308;44.272;2024-01-16T20:38:43;44.72;;;19.48;;
85381;SDS011;75790;40.308;44.272;2024-01-16T20:41:09;48.80;;;19.98;;
85381;SDS011;75790;40.308;44.272;2024-01-16T20:43:35;45.03;;;19.95;;
85381;SDS011;75790;40.308;44.272;2024-01-16T20:46:05;49.45;;;20.77;;
85381;SDS011;75790;40.308;44.272;2024-01-16T20:48:31;48.45;;;20.58;;
85381;SDS011;75790;40.308;44.272;2024-01-16T20:50:58;51.72;;;21.58;;
85381;SDS011;75790;40.308;44.272;2024-01-16T20:53:27;45.83;;;19.70;;
85381;SDS011;75790;40.308;44.272;2024-01-16T20:55:54;50.55;;;20.40;;
85381;SDS011;75790;40.308;44.272;2024-01-16T20:58:20;58.53;;;24.13;;
85381;SDS011;75790;40.308;44.272;2024-01-16T21:00:47;48.10;;;20.67;;
85381;SDS011;75790;40.308;44.272;2024-01-16T21:03:16;53.55;;;21.50;;
85381;SDS011;75790;40.308;44.272;2024-01-16T21:05:46;48.85;;;22.42;;
85381;SDS011;75790;40.308;44.272;2024-01-16T21:08:19;42.15;;;19.75;;
85381;SDS011;75790;40.308;44.272;2024-01-16T21:10:46;45.30;;;20.25;;
85381;SDS011;75790;40.308;44.272;2024-01-16T21:13:12;37.17;;;16.33;;
85381;SDS011;75790;40.308;44.272;2024-01-16T21:15:41;37.50;;;16.52;;
85381;SDS011;75790;40.308;44.272;2024-01-16T21:18:08;36.72;;;14.15;;
85381;SDS011;75790;40.308;44.272;2024-01-16T21:20:34;31.50;;;13.73;;
85381;SDS011;75790;40.308;44.272;2024-01-16T21:23:00;40.30;;;17.45;;
85381;SDS011;75790;40.308;44.272;2024-01-16T21:25:26;39.50;;;17.30;;
85381;SDS011;75790;40.308;44.272;2024-01-16T21:27:53;40.97;;;16.45;;
85381;SDS011;75790;40.308;44.272;2024-01-16T21:30:19;37.15;;;17.50;;
85381;SDS011;75790;40.308;44.272;2024-01-16T21:32:45;22.23;;;9.30;;
85381;SDS011;75790;40.308;44.272;2024-01-16T21:35:11;37.95;;;15.02;;
85381;SDS011;75790;40.308;44.272;2024-01-16T21:37:37;25.88;;;11.90;;
85381;SDS011;75790;40.308;44.272;2024-01-16T21:40:05;33.65;;;15.45;;
85381;SDS011;75790;40.308;44.272;2024-01-16T21:45:00;28.42;;;12.18;;
85381;SDS011;75790;40.308;44.272;2024-01-16T21:47:26;27.42;;;11.82;;
85381;SDS011;75790;40.308;44.272;2024-01-16T21:49:52;21.63;;;9.80;;
85381;SDS011;75790;40.308;44.272;2024-01-16T21:52:19;16.92;;;8.60;;
85381;SDS011;75790;40.308;44.272;2024-01-16T21:54:45;24.10;;;10.68;;
85381;SDS011;75790;40.308;44.272;2024-01-16T21:57:11;22.40;;;9.57;;
85381;SDS011;75790;40.308;44.272;2024-01-16T21:59:38;23.42;;;10.60;;
85381;SDS011;75790;40.308;44.272;2024-01-16T22:02:06;20.15;;;9.50;;
85381;SDS011;75790;40.308;44.272;2024-01-16T22:04:32;16.77;;;7.30;;
85381;SDS011;75790;40.308;44.272;2024-01-16T22:06:58;18.70;;;8.05;;
85381;SDS011;75790;40.308;44.272;2024-01-16T22:09:24;17.85;;;8.30;;
85381;SDS011;75790;40.308;44.272;2024-01-16T22:11:53;18.10;;;8.80;;
85381;SDS011;75790;40.308;44.272;2024-01-16T22:14:20;16.15;;;7.97;;
85381;SDS011;75790;40.308;44.272;2024-01-16T22:16:47;16.40;;;7.57;;
85381;SDS011;75790;40.308;44.272;2024-01-16T22:19:13;16.63;;;7.90;;
85381;SDS011;75790;40.308;44.272;2024-01-16T22:21:42;18.48;;;8.50;;
85381;SDS011;75790;40.308;44.272;2024-01-16T22:24:07;22.05;;;8.88;;
85381;SDS011;75790;40.308;44.272;2024-01-16T22:26:33;21.50;;;9.13;;
85381;SDS011;75790;40.308;44.272;2024-01-16T22:28:59;16.48;;;8.02;;
85381;SDS011;75790;40.308;44.272;2024-01-16T22:31:25;20.02;;;8.80;;
85381;SDS011;75790;40.308;44.272;2024-01-16T22:33:51;16.30;;;7.13;;
85381;SDS011;75790;40.308;44.272;2024-01-16T22:36:17;13.25;;;6.30;;
85381;SDS011;75790;40.308;44.272;2024-01-16T22:38:44;13.63;;;6.70;;
85381;SDS011;75790;40.308;44.272;2024-01-16T22:41:12;15.43;;;7.20;;
85381;SDS011;75790;40.308;44.272;2024-01-16T22:43:38;20.60;;;9.57;;
85381;SDS011;75790;40.308;44.272;2024-01-16T22:46:04;19.48;;;7.80;;
85381;SDS011;75790;40.308;44.272;2024-01-16T22:50:59;15.20;;;7.47;;
85381;SDS011;75790;40.308;44.272;2024-01-16T22:53:27;17.95;;;6.88;;
85381;SDS011;75790;40.308;44.272;2024-01-16T22:55:52;17.08;;;7.15;;
85381;SDS011;75790;40.308;44.272;2024-01-16T22:58:18;16.00;;;7.40;;
85381;SDS011;75790;40.308;44.272;2024-01-16T23:00:45;15.98;;;7.43;;
85381;SDS011;75790;40.308;44.272;2024-01-16T23:03:17;16.30;;;6.85;;
85381;SDS011;75790;40.308;44.272;2024-01-16T23:05:42;13.05;;;6.03;;
85381;SDS011;75790;40.308;44.272;2024-01-16T23:08:09;13.68;;;6.07;;
85381;SDS011;75790;40.308;44.272;2024-01-16T23:10:36;13.90;;;6.13;;
85381;SDS011;75790;40.308;44.272;2024-01-16T23:13:02;15.95;;;7.07;;
85381;SDS011;75790;40.308;44.272;2024-01-16T23:15:28;16.80;;;6.75;;
85381;SDS011;75790;40.308;44.272;2024-01-16T23:17:54;15.13;;;6.60;;
85381;SDS011;75790;40.308;44.272;2024-01-16T23:20:20;16.88;;;7.45;;
85381;SDS011;75790;40.308;44.272;2024-01-16T23:22:46;14.75;;;6.78;;